createdAt,value
2023-03-13T00:01:33.089Z,4.78
2023-03-13T00:04:00.835Z,5.22
2023-03-13T00:06:34.230Z,5.22
2023-03-13T00:09:03.914Z,5.03
2023-03-13T00:11:31.977Z,4.53
2023-03-13T00:14:03.479Z,4.40
2023-03-13T00:16:31.814Z,5.07
2023-03-13T00:18:59.973Z,4.57
2023-03-13T00:21:29.630Z,5.05
2023-03-13T00:24:00.351Z,4.50
2023-03-13T00:26:29.532Z,4.55
2023-03-13T00:28:57.277Z,5.18
2023-03-13T00:31:28.359Z,4.45
2023-03-13T00:34:01.719Z,4.70
2023-03-13T00:36:33.313Z,5.03
2023-03-13T00:39:01.239Z,4.63
2023-03-13T00:41:33.530Z,4.43
2023-03-13T00:44:19.628Z,4.60
2023-03-13T00:46:46.816Z,4.80
2023-03-13T00:49:14.349Z,4.15
2023-03-13T00:51:41.641Z,4.47
2023-03-13T00:54:10.062Z,4.35
2023-03-13T00:56:37.420Z,4.30
2023-03-13T00:59:05.166Z,4.60
2023-03-13T01:01:37.119Z,4.45
2023-03-13T01:04:12.095Z,4.55
2023-03-13T01:06:45.159Z,4.78
2023-03-13T01:09:15.795Z,4.20
2023-03-13T01:11:45.023Z,4.05
2023-03-13T01:14:18.063Z,3.58
2023-03-13T01:16:45.374Z,4.18
2023-03-13T01:19:16.395Z,4.50
2023-03-13T01:21:45.258Z,4.95
2023-03-13T01:24:12.974Z,4.63
2023-03-13T01:26:40.335Z,3.97
2023-03-13T01:29:07.992Z,4.05
2023-03-13T01:31:36.686Z,4.40
2023-03-13T01:34:06.505Z,4.65
2023-03-13T01:36:36.848Z,5.00
2023-03-13T01:39:05.984Z,4.90
2023-03-13T01:41:33.413Z,4.95
2023-03-13T01:44:01.519Z,5.00
2023-03-13T01:46:32.065Z,5.13
2023-03-13T01:49:08.010Z,5.10
2023-03-13T01:51:48.871Z,5.55
2023-03-13T01:54:39.510Z,5.05
2023-03-13T01:57:29.526Z,5.20
2023-03-13T02:00:08.062Z,5.47
2023-03-13T02:02:38.268Z,5.35
2023-03-13T02:05:08.384Z,6.05
2023-03-13T02:07:50.920Z,5.30
2023-03-13T02:10:22.239Z,5.60
2023-03-13T02:12:51.564Z,5.25
2023-03-13T02:15:23.009Z,5.22
2023-03-13T02:17:50.926Z,5.80
2023-03-13T02:20:22.435Z,5.50
2023-03-13T02:23:28.012Z,4.97
2023-03-13T02:25:56.831Z,5.95
2023-03-13T02:28:35.122Z,5.65
2023-03-13T02:31:03.069Z,5.82
2023-03-13T02:33:37.195Z,5.78
2023-03-13T02:36:07.116Z,5.05
2023-03-13T02:38:53.894Z,5.18
2023-03-13T02:41:24.193Z,5.53
2023-03-13T02:43:51.464Z,5.40
2023-03-13T02:46:21.591Z,4.60
2023-03-13T02:48:55.904Z,4.68
2023-03-13T02:51:45.016Z,5.32
2023-03-13T02:54:24.910Z,4.65
2023-03-13T02:57:00.854Z,4.38
2023-03-13T02:59:28.622Z,5.03
2023-03-13T03:01:56.282Z,5.00
2023-03-13T03:04:26.324Z,4.57
2023-03-13T03:06:54.543Z,4.70
2023-03-13T03:09:23.257Z,5.22
2023-03-13T03:11:51.030Z,5.55
2023-03-13T03:14:18.837Z,4.90
2023-03-13T03:16:46.619Z,5.03
2023-03-13T03:19:14.129Z,5.47
2023-03-13T03:21:41.704Z,5.03
2023-03-13T03:24:09.320Z,4.72
2023-03-13T03:26:37.289Z,5.78
2023-03-13T03:29:04.737Z,5.28
2023-03-13T03:31:32.355Z,5.55
2023-03-13T03:33:59.777Z,5.38
2023-03-13T03:36:27.635Z,5.38
2023-03-13T03:38:55.368Z,5.40
2023-03-13T03:41:22.973Z,5.68
2023-03-13T03:43:50.533Z,5.32
2023-03-13T03:46:18.122Z,5.38
2023-03-13T03:48:45.555Z,5.53
2023-03-13T03:51:14.008Z,5.50
2023-03-13T03:53:41.375Z,5.07
2023-03-13T03:56:09.075Z,5.32
2023-03-13T03:58:36.392Z,5.25
2023-03-13T04:01:04.878Z,5.45
2023-03-13T04:03:32.776Z,5.00
2023-03-13T04:06:00.388Z,4.65
2023-03-13T04:08:27.700Z,5.32
2023-03-13T04:10:55.439Z,5.40
2023-03-13T04:13:22.708Z,5.35
2023-03-13T04:15:50.284Z,4.93
2023-03-13T04:18:17.730Z,4.75
2023-03-13T04:20:45.646Z,5.13
2023-03-13T04:23:13.037Z,4.95
2023-03-13T04:25:40.634Z,4.80
2023-03-13T04:28:08.961Z,5.03
2023-03-13T04:30:36.526Z,5.82
2023-03-13T04:33:04.046Z,5.53
2023-03-13T04:35:32.350Z,5.95
2023-03-13T04:38:01.267Z,5.38
2023-03-13T04:40:29.507Z,6.25
2023-03-13T04:42:56.844Z,5.63
2023-03-13T04:45:24.375Z,5.85
2023-03-13T04:47:51.640Z,6.05
2023-03-13T04:50:19.438Z,6.85
2023-03-13T04:52:49.169Z,7.40
2023-03-13T04:55:17.873Z,7.00
2023-03-13T04:57:45.185Z,7.55
2023-03-13T05:00:13.504Z,7.57
2023-03-13T05:02:40.782Z,7.70
2023-03-13T05:05:08.742Z,8.32
2023-03-13T05:07:36.047Z,8.63
2023-03-13T05:10:03.767Z,8.90
2023-03-13T05:12:31.165Z,8.32
2023-03-13T05:14:58.765Z,8.00
2023-03-13T05:17:25.975Z,7.93
2023-03-13T05:19:53.639Z,6.82
2023-03-13T05:22:21.024Z,7.00
2023-03-13T05:24:48.556Z,7.10
2023-03-13T05:27:15.822Z,6.18
2023-03-13T05:29:43.410Z,6.65
2023-03-13T05:32:10.732Z,6.47
2023-03-13T05:34:38.297Z,7.20
2023-03-13T05:37:05.704Z,7.90
2023-03-13T05:39:33.315Z,7.07
2023-03-13T05:42:00.585Z,7.45
2023-03-13T05:44:28.177Z,7.45
2023-03-13T05:46:55.606Z,7.60
2023-03-13T05:49:23.229Z,7.38
2023-03-13T05:51:50.630Z,6.88
2023-03-13T05:54:18.211Z,6.03
2023-03-13T05:56:48.827Z,6.57
2023-03-13T05:59:16.593Z,6.35
2023-03-13T06:01:43.880Z,6.38
2023-03-13T06:04:11.768Z,6.32
2023-03-13T06:06:39.143Z,5.80
2023-03-13T06:09:06.680Z,5.72
2023-03-13T06:11:33.960Z,6.10
2023-03-13T06:14:01.513Z,5.70
2023-03-13T06:16:28.861Z,5.97
2023-03-13T06:18:56.426Z,5.72
2023-03-13T06:21:23.695Z,6.32
2023-03-13T06:23:51.190Z,6.25
2023-03-13T06:26:18.494Z,6.57
2023-03-13T06:28:46.781Z,6.60
2023-03-13T06:31:14.251Z,6.97
2023-03-13T06:33:41.937Z,6.90
2023-03-13T06:36:09.818Z,5.95
2023-03-13T06:38:37.347Z,6.57
2023-03-13T06:41:04.980Z,6.35
2023-03-13T06:43:32.561Z,6.20
2023-03-13T06:46:05.462Z,5.97
2023-03-13T06:48:33.568Z,5.40
2023-03-13T06:51:00.849Z,5.63
2023-03-13T06:53:28.447Z,5.90
2023-03-13T06:55:55.827Z,5.35
2023-03-13T06:58:32.162Z,5.57
2023-03-13T07:01:12.016Z,5.90
2023-03-13T07:03:43.841Z,6.05
2023-03-13T07:06:12.593Z,5.93
2023-03-13T07:08:40.667Z,5.80
2023-03-13T07:11:11.946Z,5.43
2023-03-13T07:13:39.995Z,6.00
2023-03-13T07:16:11.574Z,5.20
2023-03-13T07:18:44.852Z,5.40
2023-03-13T07:21:13.460Z,5.50
2023-03-13T07:23:41.721Z,5.30
2023-03-13T07:26:15.138Z,4.78
2023-03-13T07:28:43.855Z,5.03
2023-03-13T07:31:21.282Z,4.78
2023-03-13T07:33:48.962Z,4.72
2023-03-13T07:36:16.724Z,4.25
2023-03-13T07:38:48.408Z,5.20
2023-03-13T07:41:16.209Z,5.10
2023-03-13T07:43:43.860Z,4.57
2023-03-13T07:46:21.768Z,4.80
2023-03-13T07:48:49.801Z,4.78
2023-03-13T07:51:36.805Z,4.57
2023-03-13T07:54:08.328Z,4.53
2023-03-13T07:56:35.556Z,4.35
2023-03-13T07:59:03.115Z,4.13
2023-03-13T08:01:31.256Z,4.28
2023-03-13T08:04:02.108Z,3.90
2023-03-13T08:06:34.206Z,4.07
2023-03-13T08:09:02.420Z,4.20
2023-03-13T08:11:29.942Z,3.83
2023-03-13T08:13:58.044Z,4.03
2023-03-13T08:16:29.168Z,4.03
2023-03-13T08:18:59.009Z,4.20
2023-03-13T08:21:29.765Z,4.60
2023-03-13T08:24:01.468Z,4.15
2023-03-13T08:26:30.927Z,4.38
2023-03-13T08:29:02.333Z,4.50
2023-03-13T08:31:37.016Z,3.92
2023-03-13T08:34:05.098Z,4.32
2023-03-13T08:36:36.461Z,4.63
2023-03-13T08:39:12.731Z,5.28
2023-03-13T08:41:43.587Z,4.75
2023-03-13T08:44:15.534Z,4.88
2023-03-13T08:46:44.177Z,4.80
2023-03-13T08:49:12.669Z,5.30
2023-03-13T08:51:40.918Z,4.57
2023-03-13T08:54:08.560Z,4.03
2023-03-13T08:56:36.876Z,4.10
2023-03-13T08:59:07.265Z,4.10
2023-03-13T09:01:37.115Z,4.50
2023-03-13T09:04:05.998Z,4.60
2023-03-13T09:06:35.896Z,3.95
2023-03-13T09:09:05.603Z,4.25
2023-03-13T09:11:34.261Z,4.55
2023-03-13T09:14:01.899Z,4.20
2023-03-13T09:16:33.391Z,4.82
2023-03-13T09:19:02.063Z,4.47
2023-03-13T09:21:36.074Z,4.60
2023-03-13T09:24:04.378Z,4.63
2023-03-13T09:26:31.864Z,4.03
2023-03-13T09:28:59.860Z,3.75
2023-03-13T09:31:33.287Z,3.75
2023-03-13T09:34:01.655Z,3.50
2023-03-13T09:36:29.338Z,3.28
2023-03-13T09:39:00.183Z,3.88
2023-03-13T09:41:34.079Z,2.95
2023-03-13T09:44:26.892Z,3.05
2023-03-13T09:46:54.192Z,2.45
2023-03-13T09:49:39.829Z,2.50
2023-03-13T09:52:43.895Z,2.83
2023-03-13T09:55:21.569Z,2.22
2023-03-13T09:57:58.897Z,1.90
2023-03-13T10:00:48.904Z,1.95
2023-03-13T10:03:26.086Z,2.50
2023-03-13T10:06:04.760Z,2.85
2023-03-13T10:08:35.279Z,2.40
2023-03-13T10:11:19.820Z,2.50
2023-03-13T10:14:07.517Z,2.60
2023-03-13T10:16:49.142Z,2.00
2023-03-13T10:19:21.886Z,1.92
2023-03-13T10:21:56.057Z,2.17
2023-03-13T10:24:49.768Z,1.90
2023-03-13T10:27:17.611Z,2.33
2023-03-13T10:29:44.938Z,2.03
2023-03-13T10:32:16.751Z,2.10
2023-03-13T10:34:58.988Z,2.10
2023-03-13T10:37:42.648Z,1.80
2023-03-13T10:40:25.368Z,2.17
2023-03-13T10:43:02.289Z,2.42
2023-03-13T10:45:35.724Z,2.38
2023-03-13T10:48:19.464Z,2.40
2023-03-13T10:50:50.963Z,2.08
2023-03-13T10:53:25.952Z,2.42
2023-03-13T10:56:15.595Z,2.30
2023-03-13T10:58:53.795Z,2.53
2023-03-13T11:01:44.897Z,2.22
2023-03-13T11:04:42.210Z,2.60
2023-03-13T11:07:36.199Z,2.22
2023-03-13T11:10:27.087Z,2.22
2023-03-13T11:12:58.203Z,2.38
2023-03-13T11:16:15.254Z,2.20
2023-03-13T11:19:13.723Z,3.05
2023-03-13T11:22:05.103Z,2.17
2023-03-13T11:25:04.030Z,2.60
2023-03-13T11:27:43.570Z,2.40
2023-03-13T11:31:01.993Z,2.30
2023-03-13T11:33:53.598Z,2.20
2023-03-13T11:36:55.579Z,1.98
2023-03-13T11:40:01.196Z,2.00
2023-03-13T11:43:17.953Z,1.90
2023-03-13T11:46:05.887Z,2.17
2023-03-13T11:49:09.476Z,1.95
2023-03-13T11:52:32.940Z,1.52
2023-03-13T11:55:16.709Z,2.17
2023-03-13T11:58:11.897Z,1.88
2023-03-13T12:01:08.175Z,1.75
2023-03-13T12:04:05.953Z,1.77
2023-03-13T12:06:44.275Z,1.55
2023-03-13T12:09:28.272Z,2.20
2023-03-13T12:12:20.303Z,1.70
2023-03-13T12:15:16.191Z,1.77
2023-03-13T12:18:00.063Z,2.50
2023-03-13T12:20:39.937Z,2.00
2023-03-13T12:23:19.414Z,2.42
2023-03-13T12:26:06.455Z,2.40
2023-03-13T12:29:13.582Z,2.45
2023-03-13T12:31:57.408Z,2.10
2023-03-13T12:35:04.814Z,2.25
2023-03-13T12:38:06.745Z,2.13
2023-03-13T12:41:08.302Z,2.22
2023-03-13T12:43:42.482Z,1.98
2023-03-13T12:46:12.824Z,2.00
2023-03-13T12:49:21.808Z,2.20
2023-03-13T12:52:22.042Z,2.20
2023-03-13T12:55:26.589Z,2.00
2023-03-13T12:58:16.302Z,2.47
2023-03-13T13:00:48.424Z,2.50
2023-03-13T13:03:27.902Z,2.20
2023-03-13T13:06:13.321Z,2.78
2023-03-13T13:09:05.151Z,2.13
2023-03-13T13:11:38.997Z,2.70
2023-03-13T13:14:11.884Z,2.78
2023-03-13T13:16:46.569Z,2.60
2023-03-13T13:19:26.202Z,3.20
2023-03-13T13:22:36.708Z,2.95
2023-03-13T13:25:13.336Z,3.33
2023-03-13T13:27:40.816Z,2.60
2023-03-13T13:30:20.144Z,3.05
2023-03-13T13:32:54.589Z,3.10
2023-03-13T13:35:40.351Z,3.55
2023-03-13T13:38:19.766Z,3.25
2023-03-13T13:41:22.625Z,3.20
2023-03-13T13:44:24.850Z,3.17
2023-03-13T13:46:55.055Z,3.55
2023-03-13T13:49:36.241Z,3.25
2023-03-13T13:52:06.000Z,3.45
2023-03-13T13:54:42.884Z,3.60
2023-03-13T13:57:37.223Z,3.20
2023-03-13T14:00:20.936Z,3.47
2023-03-13T14:02:55.431Z,3.20
2023-03-13T14:05:30.716Z,3.50
2023-03-13T14:08:05.138Z,2.88
2023-03-13T14:10:42.335Z,3.17
2023-03-13T14:13:21.847Z,3.53
2023-03-13T14:15:53.793Z,3.40
2023-03-13T14:18:25.766Z,4.05
2023-03-13T14:21:03.353Z,3.80
2023-03-13T14:23:43.836Z,4.20
2023-03-13T14:26:18.033Z,4.00
2023-03-13T14:28:55.911Z,4.32
2023-03-13T14:31:28.903Z,3.97
2023-03-13T14:33:59.432Z,4.40
2023-03-13T14:36:45.323Z,4.20
2023-03-13T14:39:37.933Z,4.13
2023-03-13T14:42:12.028Z,3.92
2023-03-13T14:44:42.986Z,3.90
2023-03-13T14:47:32.846Z,4.15
2023-03-13T14:50:05.029Z,3.90
2023-03-13T14:52:34.319Z,3.67
2023-03-13T14:55:06.504Z,3.80
2023-03-13T14:57:35.700Z,4.20
2023-03-13T15:00:36.745Z,3.85
2023-03-13T15:03:21.442Z,3.90
2023-03-13T15:06:07.377Z,3.85
2023-03-13T15:08:45.702Z,4.55
2023-03-13T15:11:34.854Z,3.55
2023-03-13T15:14:05.253Z,3.63
2023-03-13T15:16:32.663Z,4.43
2023-03-13T15:19:00.417Z,3.20
2023-03-13T15:21:34.166Z,3.67
2023-03-13T15:24:15.334Z,3.80
2023-03-13T15:26:42.598Z,3.45
2023-03-13T15:29:13.260Z,4.32
2023-03-13T15:31:40.749Z,4.10
2023-03-13T15:34:16.364Z,3.70
2023-03-13T15:36:43.763Z,3.90
2023-03-13T15:39:19.502Z,3.83
2023-03-13T15:41:46.977Z,3.50
2023-03-13T15:44:15.008Z,4.15
2023-03-13T15:46:42.579Z,3.63
2023-03-13T15:49:13.372Z,3.60
2023-03-13T15:51:40.682Z,3.60
2023-03-13T15:54:08.305Z,3.88
2023-03-13T15:56:38.646Z,3.53
2023-03-13T15:59:14.341Z,3.60
2023-03-13T16:01:43.937Z,3.95
2023-03-13T16:04:12.094Z,4.03
2023-03-13T16:06:39.467Z,4.38
2023-03-13T16:09:07.991Z,4.00
2023-03-13T16:11:35.661Z,4.70
2023-03-13T16:14:03.435Z,4.70
2023-03-13T16:16:37.278Z,3.83
2023-03-13T16:19:07.604Z,4.30
2023-03-13T16:21:36.172Z,4.20
2023-03-13T16:24:04.089Z,4.45
2023-03-13T16:26:32.849Z,4.32
2023-03-13T16:29:01.498Z,4.20
2023-03-13T16:31:32.722Z,4.35
2023-03-13T16:34:02.373Z,4.32
2023-03-13T16:36:33.420Z,4.53
2023-03-13T16:39:06.127Z,4.68
2023-03-13T16:41:33.489Z,4.18
2023-03-13T16:44:02.817Z,4.20
2023-03-13T16:46:55.595Z,4.30
2023-03-13T16:49:31.873Z,3.85
2023-03-13T16:51:59.157Z,4.20
2023-03-13T16:54:26.739Z,3.92
2023-03-13T16:56:54.139Z,3.75
2023-03-13T16:59:23.322Z,3.95
2023-03-13T17:01:50.844Z,3.90
2023-03-13T17:04:18.531Z,3.92
2023-03-13T17:06:46.835Z,3.58
2023-03-13T17:09:18.007Z,3.78
2023-03-13T17:11:45.986Z,3.80
2023-03-13T17:14:13.716Z,4.28
2023-03-13T17:16:46.266Z,4.75
2023-03-13T17:19:15.511Z,4.30
2023-03-13T17:21:43.148Z,4.10
2023-03-13T17:24:10.768Z,4.43
2023-03-13T17:26:40.257Z,4.45
2023-03-13T17:29:14.516Z,4.03
2023-03-13T17:31:41.935Z,4.57
2023-03-13T17:34:10.084Z,4.38
2023-03-13T17:36:37.598Z,4.93
2023-03-13T17:39:08.912Z,4.05
2023-03-13T17:41:36.483Z,3.97
2023-03-13T17:44:04.359Z,3.90
2023-03-13T17:46:38.193Z,3.90
2023-03-13T17:49:06.000Z,4.60
2023-03-13T17:51:36.254Z,4.57
2023-03-13T17:54:15.652Z,4.32
2023-03-13T17:56:45.122Z,4.10
2023-03-13T17:59:21.513Z,5.18
2023-03-13T18:01:49.024Z,5.00
2023-03-13T18:04:16.677Z,5.07
2023-03-13T18:06:48.777Z,5.03
2023-03-13T18:09:22.112Z,4.57
2023-03-13T18:11:50.183Z,5.18
2023-03-13T18:14:17.966Z,4.72
2023-03-13T18:16:50.367Z,5.38
2023-03-13T18:19:24.011Z,5.38
2023-03-13T18:21:55.411Z,5.70
2023-03-13T18:24:23.256Z,5.50
2023-03-13T18:26:50.948Z,5.57
2023-03-13T18:29:29.255Z,5.35
2023-03-13T18:32:00.628Z,5.28
2023-03-13T18:34:29.065Z,5.82
2023-03-13T18:36:57.242Z,5.10
2023-03-13T18:39:24.819Z,5.10
2023-03-13T18:41:52.830Z,4.78
2023-03-13T18:44:21.128Z,4.95
2023-03-13T18:46:50.665Z,4.05
2023-03-13T18:49:22.443Z,4.40
2023-03-13T18:51:53.659Z,4.47
2023-03-13T18:54:21.359Z,4.68
2023-03-13T18:56:48.778Z,4.13
2023-03-13T18:59:20.999Z,3.83
2023-03-13T19:01:49.409Z,4.10
2023-03-13T19:04:19.100Z,3.63
2023-03-13T19:06:48.333Z,3.75
2023-03-13T19:09:42.739Z,3.75
2023-03-13T19:12:07.891Z,4.10
2023-03-13T19:14:35.554Z,4.05
2023-03-13T19:17:04.123Z,3.67
2023-03-13T19:19:32.080Z,3.47
2023-03-13T19:21:59.406Z,4.55
2023-03-13T19:24:27.480Z,3.65
2023-03-13T19:26:59.242Z,3.38
2023-03-13T19:29:29.042Z,3.50
2023-03-13T19:31:56.789Z,3.67
2023-03-13T19:34:24.582Z,3.50
2023-03-13T19:36:53.494Z,3.50
2023-03-13T19:39:24.387Z,3.75
2023-03-13T19:41:53.189Z,4.22
2023-03-13T19:44:22.328Z,4.07
2023-03-13T19:46:49.993Z,3.72
2023-03-13T19:49:20.989Z,3.25
2023-03-13T19:51:49.300Z,3.15
2023-03-13T19:54:17.100Z,3.70
2023-03-13T19:56:49.866Z,3.55
2023-03-13T19:59:24.000Z,3.67
2023-03-13T20:01:51.480Z,3.70
2023-03-13T20:04:19.172Z,3.80
2023-03-13T20:06:46.568Z,3.47
2023-03-13T20:09:17.869Z,3.10
2023-03-13T20:11:45.387Z,3.25
2023-03-13T20:14:13.472Z,3.05
2023-03-13T20:16:40.805Z,2.78
2023-03-13T20:19:08.484Z,3.15
2023-03-13T20:21:41.334Z,3.28
2023-03-13T20:24:10.591Z,3.13
2023-03-13T20:26:38.050Z,3.30
2023-03-13T20:29:05.790Z,3.55
2023-03-13T20:31:33.474Z,2.92
2023-03-13T20:34:01.190Z,3.67
2023-03-13T20:36:28.685Z,2.90
2023-03-13T20:38:57.112Z,2.83
2023-03-13T20:41:28.774Z,3.38
2023-03-13T20:43:56.359Z,3.20
2023-03-13T20:46:23.772Z,3.22
2023-03-13T20:48:51.382Z,3.40
2023-03-13T20:51:18.682Z,3.10
2023-03-13T20:53:46.316Z,3.60
2023-03-13T20:56:13.943Z,3.20
2023-03-13T20:58:41.567Z,3.42
2023-03-13T21:01:09.233Z,2.88
2023-03-13T21:03:37.344Z,4.10
2023-03-13T21:06:18.153Z,3.50
2023-03-13T21:08:47.118Z,3.58
2023-03-13T21:11:17.694Z,3.17
2023-03-13T21:13:45.918Z,3.05
2023-03-13T21:16:14.479Z,2.70
2023-03-13T21:18:42.732Z,3.60
2023-03-13T21:21:17.112Z,3.17
2023-03-13T21:23:46.285Z,3.05
2023-03-13T21:26:14.995Z,3.13
2023-03-13T21:28:42.687Z,3.33
2023-03-13T21:31:12.708Z,3.60
2023-03-13T21:33:42.274Z,2.97
2023-03-13T21:36:12.531Z,3.47
2023-03-13T21:38:40.322Z,2.88
2023-03-13T21:41:13.762Z,3.35
2023-03-13T21:43:43.104Z,2.72
2023-03-13T21:46:14.207Z,2.75
2023-03-13T21:51:13.470Z,2.88
2023-03-13T21:53:44.698Z,3.20
2023-03-13T21:56:16.748Z,2.90
2023-03-13T21:58:45.611Z,3.20
2023-03-13T22:01:14.871Z,3.22
2023-03-13T22:03:42.617Z,3.30
2023-03-13T22:06:16.149Z,2.60
2023-03-13T22:08:44.210Z,2.65
2023-03-13T22:11:11.900Z,3.10
2023-03-13T22:13:39.627Z,3.10
2023-03-13T22:16:08.069Z,2.63
2023-03-13T22:18:35.755Z,2.40
2023-03-13T22:21:03.362Z,2.83
2023-03-13T22:23:30.942Z,3.00
2023-03-13T22:25:59.280Z,3.15
2023-03-13T22:28:28.018Z,2.90
2023-03-13T22:30:55.340Z,2.90
2023-03-13T22:33:23.073Z,2.70
2023-03-13T22:35:54.967Z,3.08
2023-03-13T22:38:23.229Z,2.88
2023-03-13T22:41:03.062Z,2.92
2023-03-13T22:43:31.095Z,2.47
2023-03-13T22:45:59.829Z,2.80
2023-03-13T22:48:27.496Z,2.70
2023-03-13T22:51:09.598Z,2.65
2023-03-13T22:53:39.770Z,2.90
2023-03-13T22:56:10.098Z,3.33
2023-03-13T22:58:39.171Z,2.92
2023-03-13T23:01:26.745Z,3.75
2023-03-13T23:03:54.439Z,2.97
2023-03-13T23:06:25.842Z,2.67
2023-03-13T23:08:54.019Z,2.50
2023-03-13T23:11:26.538Z,2.97
2023-03-13T23:13:54.105Z,2.72
2023-03-13T23:16:21.613Z,2.42
2023-03-13T23:18:49.320Z,2.40
2023-03-13T23:21:17.250Z,2.20
2023-03-13T23:23:45.891Z,2.03
2023-03-13T23:26:16.135Z,2.20
2023-03-13T23:28:43.955Z,2.40
2023-03-13T23:31:20.872Z,2.30
2023-03-13T23:33:49.733Z,2.75
2023-03-13T23:36:19.706Z,2.50
2023-03-13T23:38:52.951Z,2.50
2023-03-13T23:41:21.816Z,2.92
2023-03-13T23:43:49.425Z,3.20
2023-03-13T23:46:23.260Z,2.63
2023-03-13T23:48:58.617Z,2.70
2023-03-13T23:51:26.590Z,3.00
2023-03-13T23:53:54.136Z,2.88
2023-03-13T23:56:22.116Z,2.45
2023-03-13T23:58:49.649Z,2.72
